Time;durP1;ratioP1;P1;durP2;ratioP2;P2;SDS_P1;SDS_P2;PMS_P1;PMS_P2;Temp;Humidity;BMP_temperature;BMP_pressure;BME280_temperature;BME280_humidity;BME280_pressure;Samples;Min_cycle;Max_cycle;Signal;HPM_P1;HPM_P2
2024/01/06 00:00:10;;;;;;;15.10;10.30;;;;;;;-2.18;82.07;99554.89;103573;1253;107355;-66
2024/01/06 00:02:58;;;;;;;15.90;10.40;;;;;;;-2.12;82.22;99550.19;103367;1254;138231;-65
2024/01/06 00:05:25;;;;;;;15.40;10.40;;;;;;;-2.08;82.26;99553.80;103265;1258;108018;-68
2024/01/06 00:07:52;;;;;;;14.70;9.80;;;;;;;-2.04;82.08;99552.27;103225;1258;96316;-66
2024/01/06 00:10:19;;;;;;;14.10;10.60;;;;;;;-2.01;81.87;99549.91;103451;1254;138009;-68
2024/01/06 00:12:48;;;;;;;17.00;10.70;;;;;;;-1.99;82.01;99547.88;103430;1255;107715;-66
2024/01/06 00:15:15;;;;;;;19.50;10.70;;;;;;;-1.97;81.87;99550.81;103205;1254;138466;-66
2024/01/06 00:17:42;;;;;;;18.60;11.80;;;;;;;-1.91;82.02;99548.97;103291;1254;107913;-66
2024/01/06 00:20:11;;;;;;;18.30;12.40;;;;;;;-1.85;82.18;99550.54;103231;1257;96450;-67
2024/01/06 00:22:38;;;;;;;21.40;13.10;;;;;;;-1.78;82.03;99556.89;103901;1254;108926;-67
2024/01/06 00:25:06;;;;;;;21.30;14.30;;;;;;;-1.74;81.76;99556.92;103184;1254;108296;-67
2024/01/06 00:27:32;;;;;;;21.10;14.10;;;;;;;-1.72;81.66;99559.65;103351;1254;137515;-66
2024/01/06 00:29:59;;;;;;;23.70;15.00;;;;;;;-1.73;81.93;99560.16;103172;1254;108698;-66
2024/01/06 00:32:26;;;;;;;22.60;13.80;;;;;;;-1.76;81.73;99560.15;103241;1258;138006;-67
2024/01/06 00:34:53;;;;;;;19.40;11.80;;;;;;;-1.78;81.67;99557.08;103295;1257;109468;-67
2024/01/06 00:37:20;;;;;;;17.40;12.40;;;;;;;-1.82;81.50;99554.13;103397;1254;107710;-67
2024/01/06 00:39:47;;;;;;;18.00;12.10;;;;;;;-1.83;81.35;99561.45;103217;1254;138338;-68
2024/01/06 00:42:14;;;;;;;17.80;12.50;;;;;;;-1.84;81.83;99561.61;103339;1254;107751;-68
2024/01/06 00:44:41;;;;;;;20.90;13.30;;;;;;;-1.86;81.73;99560.42;103186;1254;139015;-66
2024/01/06 00:47:08;;;;;;;19.30;13.20;;;;;;;-1.88;81.75;99557.34;103347;1255;111363;-66
2024/01/06 00:49:35;;;;;;;20.60;13.50;;;;;;;-1.90;82.14;99554.77;103192;1254;107121;-65
2024/01/06 00:52:02;;;;;;;20.10;12.50;;;;;;;-1.96;82.16;99547.59;103226;1257;137681;-66
2024/01/06 00:54:30;;;;;;;18.00;11.90;;;;;;;-2.00;82.11;99539.70;103368;1257;107517;-66
2024/01/06 00:56:56;;;;;;;16.50;11.20;;;;;;;-1.99;82.29;99534.58;103159;1256;138266;-67
2024/01/06 00:59:24;;;;;;;19.10;11.50;;;;;;;-2.00;82.51;99533.90;103429;1254;109023;-66
2024/01/06 01:01:51;;;;;;;17.40;10.70;;;;;;;-2.01;82.92;99528.62;103281;1258;107687;-68
2024/01/06 01:04:18;;;;;;;20.10;12.00;;;;;;;-2.01;82.73;99529.30;102422;1254;1003269;-68
2024/01/06 01:06:45;;;;;;;16.60;11.50;;;;;;;-2.00;82.73;99523.68;103251;1253;107910;-67
2024/01/06 01:09:13;;;;;;;18.70;12.30;;;;;;;-2.05;82.91;99513.27;103169;1253;138266;-68
2024/01/06 01:11:40;;;;;;;15.50;11.30;;;;;;;-2.11;82.95;99510.00;103252;1254;109661;-68
2024/01/06 01:14:07;;;;;;;16.70;10.80;;;;;;;-2.15;82.91;99510.98;103215;1254;108480;-68
2024/01/06 01:16:34;;;;;;;14.70;10.80;;;;;;;-2.17;82.98;99505.51;103306;1254;97132;-68
2024/01/06 01:19:01;;;;;;;19.00;11.40;;;;;;;-2.19;83.01;99518.27;103313;1256;108247;-68
2024/01/06 01:21:28;;;;;;;16.30;10.60;;;;;;;-2.19;83.10;99532.23;103182;1254;138190;-66
2024/01/06 01:23:55;;;;;;;15.70;11.00;;;;;;;-2.18;83.30;99540.76;103256;1258;110445;-66
2024/01/06 01:26:22;;;;;;;14.60;10.30;;;;;;;-2.18;83.32;99540.08;103121;1258;138601;-67
2024/01/06 01:28:49;;;;;;;15.70;10.80;;;;;;;-2.21;83.12;99540.73;103312;1254;96675;-67
2024/01/06 01:31:16;;;;;;;16.20;10.80;;;;;;;-2.23;83.12;99542.26;103275;1254;108614;-67
2024/01/06 01:33:43;;;;;;;16.10;11.50;;;;;;;-2.24;83.05;99541.23;103197;1254;137734;-67
2024/01/06 01:36:10;;;;;;;14.90;10.70;;;;;;;-2.25;83.27;99546.67;103350;1254;110612;-67
2024/01/06 01:38:37;;;;;;;14.50;9.70;;;;;;;-2.24;83.17;99545.48;103174;1258;139481;-66
2024/01/06 01:41:04;;;;;;;13.80;9.70;;;;;;;-2.23;83.33;99544.48;103313;1255;96453;-66
2024/01/06 01:43:31;;;;;;;14.00;8.70;;;;;;;-2.20;83.46;99541.25;103289;1254;108614;-67
2024/01/06 01:45:59;;;;;;;16.50;9.40;;;;;;;-2.16;83.30;99540.95;103202;1255;138270;-67
2024/01/06 01:48:26;;;;;;;16.30;10.20;;;;;;;-2.15;83.11;99535.70;103297;1254;110782;-67
2024/01/06 01:50:54;;;;;;;15.20;10.40;;;;;;;-2.13;82.91;99534.34;103163;1258;137730;-67
2024/01/06 01:53:23;;;;;;;16.40;9.80;;;;;;;-2.14;82.96;99528.72;103312;1254;96942;-67
2024/01/06 01:55:51;;;;;;;14.80;9.90;;;;;;;-2.15;83.03;99531.42;103293;1258;108519;-66
2024/01/06 02:02:05;;;;;;;15.10;9.50;;;;;;;-2.23;82.86;99536.97;103569;1253;109985;-67
2024/01/06 02:04:31;;;;;;;13.10;9.50;;;;;;;-2.27;83.08;99532.87;102448;1253;1003822;-66
2024/01/06 02:06:58;;;;;;;14.70;9.60;;;;;;;-2.29;83.25;99534.39;102559;1253;1003382;-66
2024/01/06 02:09:28;;;;;;;14.60;9.40;;;;;;;-2.30;83.44;99532.33;102338;1253;1003033;-67
2024/01/06 02:11:57;;;;;;;14.40;9.50;;;;;;;-2.32;83.31;99532.65;103311;1253;96607;-67
2024/01/06 02:14:24;;;;;;;15.50;9.90;;;;;;;-2.31;83.13;99536.42;103265;1253;138128;-68
2024/01/06 02:16:50;;;;;;;13.80;9.50;;;;;;;-2.32;83.27;99534.38;103337;1257;108285;-67
2024/01/06 02:19:18;;;;;;;13.30;8.80;;;;;;;-2.34;83.12;99527.36;102731;1253;1003762;-66
2024/01/06 02:21:51;;;;;;;13.70;7.70;;;;;;;-2.35;82.95;99524.96;103341;1253;138911;-66
2024/01/06 02:24:17;;;;;;;11.60;7.60;;;;;;;-2.37;82.61;99519.48;103271;1254;96355;-67
2024/01/06 02:26:44;;;;;;;11.00;7.50;;;;;;;-2.36;82.71;99516.44;103261;1255;138627;-67
2024/01/06 02:29:11;;;;;;;13.20;8.30;;;;;;;-2.32;83.08;99513.42;103182;1253;108882;-66
2024/01/06 02:31:38;;;;;;;11.50;8.30;;;;;;;-2.31;83.05;99499.98;102612;1257;1003232;-66
2024/01/06 02:34:05;;;;;;;12.70;7.90;;;;;;;-2.27;82.76;99498.81;103194;1257;137989;-66
2024/01/06 02:36:32;;;;;;;11.60;8.50;;;;;;;-2.30;82.27;99489.59;103468;1256;97117;-66
2024/01/06 02:38:59;;;;;;;11.60;8.40;;;;;;;-2.32;82.56;99495.20;102520;1253;1003202;-67
2024/01/06 02:41:26;;;;;;;10.50;8.00;;;;;;;-2.35;82.56;99503.66;103352;1257;107497;-67
2024/01/06 02:43:55;;;;;;;10.70;8.10;;;;;;;-2.37;82.67;99505.20;103372;1258;96547;-67
2024/01/06 02:46:22;;;;;;;10.40;7.30;;;;;;;-2.35;82.96;99504.86;103232;1253;138002;-66
2024/01/06 02:48:48;;;;;;;10.90;7.10;;;;;;;-2.35;82.70;99510.48;103327;1253;96470;-66
2024/01/06 02:51:16;;;;;;;10.30;7.80;;;;;;;-2.35;82.83;99508.77;103182;1252;137513;-66
2024/01/06 02:53:42;;;;;;;10.30;7.80;;;;;;;-2.33;82.50;99509.16;103404;1253;108161;-66
2024/01/06 02:56:13;;;;;;;9.60;8.20;;;;;;;-2.32;82.72;99502.52;103390;1254;96449;-66
2024/01/06 02:58:40;;;;;;;12.80;8.70;;;;;;;-2.34;82.65;99493.80;103443;1253;107595;-66
2024/01/06 03:01:07;;;;;;;12.60;8.20;;;;;;;-2.39;82.81;99502.62;102612;1253;1003705;-65
2024/01/06 03:03:34;;;;;;;11.90;7.20;;;;;;;-2.40;82.55;99503.98;103257;1253;138168;-66
2024/01/06 03:06:01;;;;;;;13.40;8.40;;;;;;;-2.41;82.83;99506.36;103412;1253;107432;-68
2024/01/06 03:08:28;;;;;;;12.20;8.10;;;;;;;-2.40;83.16;99510.61;103215;1254;138344;-67
2024/01/06 03:10:55;;;;;;;12.30;9.60;;;;;;;-2.38;82.85;99505.86;103229;1254;107987;-67
2024/01/06 03:13:22;;;;;;;13.50;9.40;;;;;;;-2.35;82.93;99504.17;103354;1253;96330;-67
2024/01/06 03:15:49;;;;;;;13.20;9.70;;;;;;;-2.34;83.09;99506.23;103221;1254;137246;-67
2024/01/06 03:18:15;;;;;;;13.60;9.60;;;;;;;-2.34;83.06;99505.55;102519;1253;1002741;-67
2024/01/06 03:20:43;;;;;;;13.70;10.10;;;;;;;-2.38;83.53;99499.39;103271;1253;138427;-67
2024/01/06 03:23:09;;;;;;;14.20;10.80;;;;;;;-2.41;83.25;99494.09;102592;1253;1003391;-66
2024/01/06 03:25:36;;;;;;;13.40;10.00;;;;;;;-2.42;83.39;99492.05;103348;1257;96428;-66
2024/01/06 03:28:03;;;;;;;14.00;10.00;;;;;;;-2.44;83.77;99494.09;103235;1253;138122;-66
2024/01/06 03:30:30;;;;;;;13.40;10.00;;;;;;;-2.47;83.73;99489.64;103264;1253;107163;-66
2024/01/06 03:32:57;;;;;;;15.80;10.60;;;;;;;-2.48;83.80;99487.94;103367;1254;138536;-66
2024/01/06 03:35:25;;;;;;;15.60;11.10;;;;;;;-2.49;83.96;99489.28;103410;1253;108584;-66
2024/01/06 03:37:51;;;;;;;14.40;10.50;;;;;;;-2.51;84.03;99489.27;102595;1253;1015618;-66
2024/01/06 03:40:18;;;;;;;13.70;10.30;;;;;;;-2.54;84.17;99492.11;103348;1253;138540;-67
2024/01/06 03:42:45;;;;;;;15.50;11.00;;;;;;;-2.56;84.06;99491.77;102519;1253;1002739;-65
2024/01/06 03:45:13;;;;;;;15.60;10.60;;;;;;;-2.57;84.61;99490.90;103346;1257;138400;-66
2024/01/06 03:47:40;;;;;;;14.60;9.90;;;;;;;-2.59;84.63;99490.72;103352;1253;107744;-65
2024/01/06 03:50:08;;;;;;;14.30;10.30;;;;;;;-2.59;84.72;99488.16;103349;1254;96483;-66
2024/01/06 03:52:35;;;;;;;16.70;11.30;;;;;;;-2.58;84.64;99494.64;104045;1256;109783;-65
2024/01/06 03:55:02;;;;;;;14.60;9.90;;;;;;;-2.57;84.52;99497.20;103339;1253;107325;-65
2024/01/06 03:57:29;;;;;;;13.50;9.80;;;;;;;-2.54;84.74;99506.58;103353;1253;138273;-65
2024/01/06 03:59:56;;;;;;;12.90;9.30;;;;;;;-2.46;85.01;99507.69;103312;1253;108104;-65
2024/01/06 04:02:23;;;;;;;12.70;9.60;;;;;;;-2.38;84.70;99503.14;103281;1255;138008;-66
2024/01/06 04:04:50;;;;;;;13.90;10.50;;;;;;;-2.31;84.78;99506.27;103353;1252;109344;-67
2024/01/06 04:07:17;;;;;;;15.70;10.80;;;;;;;-2.25;84.63;99507.16;103277;1256;107622;-66
2024/01/06 04:09:46;;;;;;;15.60;11.20;;;;;;;-2.19;84.76;99511.29;103287;1254;137648;-67
2024/01/06 04:12:13;;;;;;;17.90;11.90;;;;;;;-2.16;84.47;99511.83;103383;1253;108123;-67
2024/01/06 04:14:40;;;;;;;17.80;11.90;;;;;;;-2.16;84.23;99515.05;103503;1253;138474;-65
2024/01/06 04:17:07;;;;;;;16.50;11.10;;;;;;;-2.15;84.54;99509.11;103556;1257;108625;-67
2024/01/06 04:19:34;;;;;;;15.20;10.80;;;;;;;-2.14;84.56;99506.58;103443;1253;109472;-67
2024/01/06 04:22:02;;;;;;;13.90;9.90;;;;;;;-2.10;84.81;99504.73;103289;1253;138517;-67
2024/01/06 04:24:29;;;;;;;15.30;10.90;;;;;;;-2.06;84.69;99503.05;103455;1253;107695;-67
2024/01/06 04:26:55;;;;;;;15.30;11.10;;;;;;;-2.00;84.67;99498.80;103375;1253;138247;-68
2024/01/06 04:29:22;;;;;;;14.70;11.00;;;;;;;-1.93;84.88;99498.53;103334;1257;110659;-68
2024/01/06 04:31:49;;;;;;;16.60;11.40;;;;;;;-1.88;84.70;99500.26;103352;1258;107223;-68
2024/01/06 04:34:16;;;;;;;15.90;11.60;;;;;;;-1.84;84.75;99504.71;103360;1256;138310;-68
2024/01/06 04:36:43;;;;;;;19.80;13.50;;;;;;;-1.80;84.64;99506.09;103389;1253;108354;-67
2024/01/06 04:39:12;;;;;;;20.30;13.20;;;;;;;-1.79;84.68;99507.48;103370;1253;137647;-65
2024/01/06 04:41:39;;;;;;;19.80;12.90;;;;;;;-1.76;84.71;99513.80;103825;1254;109400;-66
2024/01/06 04:44:06;;;;;;;18.90;12.70;;;;;;;-1.75;84.61;99510.90;103260;1256;107385;-66
2024/01/06 04:46:34;;;;;;;17.70;12.60;;;;;;;-1.77;84.18;99512.77;103192;1254;138149;-65
2024/01/06 04:49:01;;;;;;;18.30;13.40;;;;;;;-1.81;84.39;99511.54;103374;1254;108018;-66
2024/01/06 04:51:28;;;;;;;22.80;13.50;;;;;;;-1.85;84.29;99512.20;103199;1256;138344;-66
2024/01/06 04:53:55;;;;;;;20.80;13.40;;;;;;;-1.88;84.23;99516.10;103344;1254;109486;-65
2024/01/06 04:56:21;;;;;;;18.80;12.50;;;;;;;-1.89;84.66;99523.77;103243;1253;138924;-65
2024/01/06 04:58:49;;;;;;;18.10;12.10;;;;;;;-1.88;84.56;99524.63;103356;1254;97588;-65
2024/01/06 05:01:16;;;;;;;15.40;12.20;;;;;;;-1.86;84.83;99520.38;103276;1258;108353;-65
2024/01/06 05:03:43;;;;;;;17.90;11.90;;;;;;;-1.83;84.82;99514.59;104504;1254;138210;-66
2024/01/06 05:06:10;;;;;;;19.10;12.60;;;;;;;-1.80;84.93;99511.38;103901;1254;109930;-66
2024/01/06 05:08:41;;;;;;;17.50;12.50;;;;;;;-1.77;84.80;99511.23;103203;1253;141081;-66
2024/01/06 05:11:08;;;;;;;16.20;12.30;;;;;;;-1.78;84.55;99509.02;103497;1254;96902;-66
2024/01/06 05:13:35;;;;;;;17.30;11.90;;;;;;;-1.83;84.64;99507.27;103303;1253;107988;-65
2024/01/06 05:16:02;;;;;;;15.60;11.10;;;;;;;-1.85;84.35;99509.64;103468;1254;138206;-66
2024/01/06 05:18:29;;;;;;;15.60;11.50;;;;;;;-1.88;84.32;99513.71;103306;1258;109681;-66
2024/01/06 05:20:57;;;;;;;15.10;11.00;;;;;;;-1.90;84.52;99513.89;103244;1256;139217;-66
2024/01/06 05:23:23;;;;;;;17.90;11.40;;;;;;;-1.90;84.37;99520.52;103611;1253;96394;-66
2024/01/06 05:25:50;;;;;;;16.00;11.10;;;;;;;-1.91;84.44;99523.59;103328;1257;108194;-66
2024/01/06 05:28:17;;;;;;;14.60;10.80;;;;;;;-1.93;84.36;99523.91;103585;1254;138316;-66
2024/01/06 05:30:44;;;;;;;16.50;10.80;;;;;;;-1.97;84.50;99520.81;103440;1254;109758;-66
2024/01/06 05:33:14;;;;;;;14.90;10.70;;;;;;;-2.01;84.47;99516.70;103220;1253;140115;-66
2024/01/06 05:35:42;;;;;;;14.50;10.40;;;;;;;-2.06;84.70;99519.56;103728;1253;95129;-66
2024/01/06 05:38:08;;;;;;;15.40;10.40;;;;;;;-2.11;84.67;99533.67;103346;1253;107066;-67
2024/01/06 05:40:35;;;;;;;14.90;10.30;;;;;;;-2.15;84.71;99538.23;103283;1254;96323;-67
2024/01/06 05:43:02;;;;;;;15.20;11.10;;;;;;;-2.18;84.88;99538.55;103351;1257;109459;-66
2024/01/06 05:45:29;;;;;;;14.50;10.60;;;;;;;-2.20;85.01;99536.65;103290;1256;139409;-66
2024/01/06 05:47:57;;;;;;;15.80;11.10;;;;;;;-2.24;85.10;99535.43;103493;1253;96447;-66
2024/01/06 05:50:24;;;;;;;15.40;11.10;;;;;;;-2.25;85.26;99536.63;103271;1257;139138;-66
2024/01/06 05:52:51;;;;;;;15.80;11.30;;;;;;;-2.25;85.32;99540.20;103363;1254;96495;-67
2024/01/06 05:55:19;;;;;;;17.20;11.60;;;;;;;-2.22;85.52;99542.59;103410;1253;109952;-66
2024/01/06 05:57:46;;;;;;;17.30;10.50;;;;;;;-2.18;85.68;99543.65;103244;1253;139165;-67
2024/01/06 06:00:15;;;;;;;19.00;12.70;;;;;;;-2.15;85.47;99544.03;103390;1257;96471;-66
2024/01/06 06:02:42;;;;;;;16.80;11.60;;;;;;;-2.14;85.38;99543.02;103626;1253;138589;-66
2024/01/06 06:05:10;;;;;;;18.20;12.40;;;;;;;-2.13;85.51;99544.56;103315;1253;96794;-66
2024/01/06 06:07:38;;;;;;;18.60;12.70;;;;;;;-2.12;85.20;99545.25;103441;1256;108742;-66
2024/01/06 06:10:10;;;;;;;16.70;12.70;;;;;;;-2.13;85.42;99550.34;103206;1253;138223;-66
2024/01/06 06:12:37;;;;;;;17.40;12.10;;;;;;;-2.12;85.38;99562.29;103429;1253;96380;-66
2024/01/06 06:15:06;;;;;;;19.50;13.20;;;;;;;-2.16;85.26;99563.59;103281;1253;137984;-66
2024/01/06 06:17:33;;;;;;;16.70;13.00;;;;;;;-2.19;85.25;99565.27;103493;1257;96429;-66
2024/01/06 06:20:01;;;;;;;18.30;13.10;;;;;;;-2.19;85.49;99574.46;103459;1257;110006;-66
2024/01/06 06:22:30;;;;;;;19.80;13.60;;;;;;;-2.16;85.55;99579.93;103330;1253;138357;-66
2024/01/06 06:24:57;;;;;;;19.20;13.40;;;;;;;-2.15;85.74;99578.60;103406;1253;96305;-67
2024/01/06 06:27:25;;;;;;;20.40;13.70;;;;;;;-2.13;85.83;99578.80;103179;1253;138997;-66
2024/01/06 06:29:51;;;;;;;19.50;13.70;;;;;;;-2.13;85.52;99576.76;103427;1253;96420;-67
2024/01/06 06:32:18;;;;;;;18.70;13.90;;;;;;;-2.16;85.70;99577.75;103301;1257;139490;-66
2024/01/06 06:34:45;;;;;;;22.40;14.20;;;;;;;-2.18;85.82;99578.90;103335;1253;107249;-67
2024/01/06 06:37:12;;;;;;;19.30;14.00;;;;;;;-2.17;85.68;99577.21;103430;1253;96345;-67
2024/01/06 06:39:39;;;;;;;20.40;14.50;;;;;;;-2.19;85.93;99582.48;103324;1257;138166;-67
2024/01/06 06:42:07;;;;;;;18.90;14.10;;;;;;;-2.20;85.71;99587.73;103376;1253;96338;-66
2024/01/06 06:44:34;;;;;;;20.50;14.30;;;;;;;-2.19;85.62;99595.08;103369;1254;139631;-66
2024/01/06 06:47:01;;;;;;;20.30;13.80;;;;;;;-2.18;85.99;99600.87;103271;1254;107402;-68
2024/01/06 06:49:27;;;;;;;19.90;14.20;;;;;;;-2.15;85.90;99609.08;103325;1255;96448;-66
2024/01/06 06:51:55;;;;;;;22.40;15.20;;;;;;;-2.11;85.98;99620.54;103203;1254;138544;-66
2024/01/06 06:54:22;;;;;;;22.50;15.30;;;;;;;-2.06;85.90;99620.91;103563;1256;96447;-66
2024/01/06 06:56:49;;;;;;;23.10;15.10;;;;;;;-2.05;85.74;99618.70;103228;1256;139401;-67
2024/01/06 06:59:16;;;;;;;21.20;14.30;;;;;;;-2.03;85.51;99614.46;103322;1256;107223;-67
2024/01/06 07:01:43;;;;;;;22.00;14.10;;;;;;;-2.00;85.67;99615.67;103197;1256;96476;-67
2024/01/06 07:04:10;;;;;;;22.10;15.20;;;;;;;-1.98;85.59;99614.00;103183;1255;138145;-67
2024/01/06 07:06:37;;;;;;;23.20;14.40;;;;;;;-1.98;85.54;99617.23;103272;1254;96465;-67
2024/01/06 07:09:04;;;;;;;21.00;14.10;;;;;;;-1.97;85.31;99618.42;103269;1254;138048;-68
2024/01/06 07:11:31;;;;;;;19.50;14.40;;;;;;;-1.97;85.39;99619.29;103283;1258;108340;-67
2024/01/06 07:13:58;;;;;;;20.00;13.50;;;;;;;-1.96;85.44;99613.01;103317;1256;96970;-66
2024/01/06 07:16:25;;;;;;;19.40;13.90;;;;;;;-1.96;85.13;99607.20;103150;1256;138595;-66
2024/01/06 07:18:52;;;;;;;17.90;13.20;;;;;;;-1.96;85.18;99596.30;103517;1254;96596;-67
2024/01/06 07:21:20;;;;;;;21.60;14.60;;;;;;;-1.99;85.01;99594.21;103212;1253;138100;-67
2024/01/06 07:23:47;;;;;;;22.00;14.50;;;;;;;-2.00;85.30;99593.87;103360;1253;108240;-67
2024/01/06 07:26:14;;;;;;;21.70;14.40;;;;;;;-1.99;85.26;99593.02;103415;1253;97720;-68
2024/01/06 07:28:40;;;;;;;21.20;14.40;;;;;;;-2.02;85.03;99597.60;103215;1255;107858;-68
2024/01/06 07:31:07;;;;;;;20.50;15.00;;;;;;;-2.04;85.22;99601.50;103277;1258;96332;-68
2024/01/06 07:33:34;;;;;;;20.90;15.10;;;;;;;-2.04;84.97;99605.77;103254;1258;138190;-68
2024/01/06 07:36:01;;;;;;;21.60;14.60;;;;;;;-2.04;85.31;99612.40;103254;1254;107012;-68
2024/01/06 07:38:30;;;;;;;20.50;14.40;;;;;;;-2.04;85.26;99622.96;103179;1256;139293;-68
2024/01/06 07:40:57;;;;;;;22.00;15.40;;;;;;;-2.03;85.34;99627.92;103330;1253;107796;-68
2024/01/06 07:43:25;;;;;;;20.20;15.20;;;;;;;-2.00;85.08;99635.09;103236;1256;96348;-67
2024/01/06 07:45:52;;;;;;;23.90;15.50;;;;;;;-1.95;85.31;99644.19;103754;1253;138063;-67
2024/01/06 07:48:19;;;;;;;20.70;15.00;;;;;;;-1.92;85.24;99649.83;103366;1253;108344;-68
2024/01/06 07:50:47;;;;;;;22.20;15.50;;;;;;;-1.90;85.23;99651.20;103292;1252;138546;-67
2024/01/06 07:53:14;;;;;;;20.40;15.10;;;;;;;-1.87;85.09;99652.94;103355;1257;109294;-68
2024/01/06 07:55:41;;;;;;;20.30;14.20;;;;;;;-1.90;85.10;99650.52;103428;1256;96482;-66
2024/01/06 07:58:08;;;;;;;22.20;15.10;;;;;;;-1.90;84.67;99653.25;102581;1253;1003076;-67
2024/01/06 08:00:34;;;;;;;24.50;14.60;;;;;;;-1.89;84.68;99654.80;103416;1253;107134;-67
2024/01/06 08:03:03;;;;;;;22.40;15.00;;;;;;;-1.85;85.08;99655.50;103298;1253;138212;-67
2024/01/06 08:05:30;;;;;;;21.50;14.00;;;;;;;-1.83;84.91;99658.23;103897;1256;108881;-68
2024/01/06 08:07:57;;;;;;;20.30;14.60;;;;;;;-1.80;84.91;99656.06;103194;1253;96528;-69
2024/01/06 08:10:23;;;;;;;17.50;13.30;;;;;;;-1.78;84.81;99658.64;103163;1254;138184;-68
2024/01/06 08:12:50;;;;;;;20.50;13.90;;;;;;;-1.77;84.99;99650.81;103262;1258;109241;-67
2024/01/06 08:15:17;;;;;;;21.40;14.30;;;;;;;-1.75;84.64;99652.35;103291;1256;139281;-67
2024/01/06 08:17:44;;;;;;;20.20;14.60;;;;;;;-1.71;84.94;99655.79;103384;1253;107849;-67
2024/01/06 08:20:13;;;;;;;23.20;16.10;;;;;;;-1.68;84.65;99656.15;103463;1253;96464;-67
2024/01/06 08:22:40;;;;;;;21.20;14.70;;;;;;;-1.67;84.52;99655.47;103596;1253;109136;-71
2024/01/06 08:25:08;;;;;;;21.50;15.20;;;;;;;-1.65;84.41;99657.17;103428;1253;107461;-67
2024/01/06 08:27:35;;;;;;;22.40;15.60;;;;;;;-1.67;84.54;99650.02;104479;1252;138173;-67
2024/01/06 08:30:02;;;;;;;23.10;16.30;;;;;;;-1.66;83.97;99659.56;103403;1253;108157;-68
2024/01/06 08:32:29;;;;;;;22.80;15.50;;;;;;;-1.70;83.99;99662.45;103127;1253;138696;-68
2024/01/06 08:34:56;;;;;;;21.00;15.10;;;;;;;-1.71;83.82;99667.55;103372;1253;110510;-67
2024/01/06 08:37:23;;;;;;;20.40;14.90;;;;;;;-1.71;84.10;99675.55;103336;1255;108147;-68
2024/01/06 08:39:50;;;;;;;20.30;14.20;;;;;;;-1.70;84.20;99683.23;103160;1253;140558;-66
2024/01/06 08:42:17;;;;;;;19.00;13.10;;;;;;;-1.68;84.14;99689.22;103358;1258;108245;-66
2024/01/06 08:44:44;;;;;;;19.60;13.00;;;;;;;-1.65;84.13;99687.19;103179;1253;138479;-65
2024/01/06 08:47:11;;;;;;;19.00;12.70;;;;;;;-1.61;84.32;99688.94;103442;1253;110080;-65
2024/01/06 08:49:39;;;;;;;16.40;12.10;;;;;;;-1.58;84.14;99691.19;103175;1258;107365;-65
2024/01/06 08:52:07;;;;;;;18.40;12.90;;;;;;;-1.58;83.61;99696.81;103370;1253;138330;-67
2024/01/06 08:54:34;;;;;;;16.60;12.50;;;;;;;-1.57;83.68;99699.20;103941;1257;106740;-66
2024/01/06 08:57:01;;;;;;;18.00;12.50;;;;;;;-1.57;83.45;99697.33;103227;1253;138268;-68
2024/01/06 08:59:29;;;;;;;18.70;12.80;;;;;;;-1.57;83.43;99696.81;103410;1258;110265;-66
2024/01/06 09:01:56;;;;;;;19.70;12.90;;;;;;;-1.54;83.84;99699.39;103289;1253;109208;-66
2024/01/06 09:04:23;;;;;;;17.00;12.30;;;;;;;-1.51;83.59;99702.30;103280;1256;138335;-68
2024/01/06 09:06:51;;;;;;;19.20;13.10;;;;;;;-1.49;83.39;99711.02;103312;1253;107323;-68
2024/01/06 09:09:18;;;;;;;16.80;12.50;;;;;;;-1.47;83.64;99709.83;103915;1257;138520;-68
2024/01/06 09:11:46;;;;;;;17.50;12.60;;;;;;;-1.44;83.49;99710.05;103459;1253;109670;-68
2024/01/06 09:14:13;;;;;;;18.20;13.20;;;;;;;-1.41;83.56;99709.73;103313;1254;107862;-68
2024/01/06 09:16:40;;;;;;;16.20;12.10;;;;;;;-1.39;83.28;99708.89;103328;1253;96946;-67
2024/01/06 09:19:07;;;;;;;18.50;13.00;;;;;;;-1.36;83.35;99704.13;103336;1253;108467;-65
2024/01/06 09:21:35;;;;;;;18.70;12.40;;;;;;;-1.35;83.04;99706.00;103342;1253;138379;-65
2024/01/06 09:24:06;;;;;;;16.60;12.00;;;;;;;-1.35;83.18;99712.15;103363;1257;110020;-66
2024/01/06 09:26:34;;;;;;;18.90;13.00;;;;;;;-1.38;82.86;99716.05;103343;1252;138370;-66
2024/01/06 09:29:01;;;;;;;18.20;13.30;;;;;;;-1.39;82.82;99709.73;103406;1253;97091;-69
2024/01/06 09:31:27;;;;;;;16.60;12.10;;;;;;;-1.37;83.01;99704.97;103404;1257;107368;-68
2024/01/06 09:33:54;;;;;;;16.30;11.80;;;;;;;-1.40;82.80;99699.66;103287;1256;138229;-68
2024/01/06 09:36:21;;;;;;;16.00;12.20;;;;;;;-1.40;82.80;99704.10;103424;1253;110421;-68
2024/01/06 09:38:48;;;;;;;18.50;12.50;;;;;;;-1.39;82.89;99710.93;103346;1253;138722;-68
2024/01/06 09:41:15;;;;;;;16.20;12.30;;;;;;;-1.40;82.78;99707.86;103495;1253;96538;-68
2024/01/06 09:43:42;;;;;;;19.70;12.50;;;;;;;-1.41;82.84;99704.44;103380;1256;108144;-68
2024/01/06 09:46:16;;;;;;;17.00;12.00;;;;;;;-1.42;82.90;99707.84;103265;1253;138287;-69
2024/01/06 09:48:44;;;;;;;17.80;12.70;;;;;;;-1.43;82.60;99710.21;103449;1256;109724;-67
2024/01/06 09:51:12;;;;;;;15.30;11.60;;;;;;;-1.45;82.99;99714.45;103260;1253;138493;-68
2024/01/06 09:53:50;;;;;;;16.70;12.90;;;;;;;-1.47;82.99;99713.23;103576;1256;97203;-68
2024/01/06 09:56:18;;;;;;;16.10;11.70;;;;;;;-1.46;83.13;99712.56;103381;1256;107027;-69
2024/01/06 09:58:46;;;;;;;17.50;12.20;;;;;;;-1.45;83.30;99711.89;103425;1253;96467;-68
2024/01/06 10:01:14;;;;;;;18.30;12.10;;;;;;;-1.44;83.12;99713.09;103442;1253;110890;-69
2024/01/06 10:03:42;;;;;;;18.50;12.00;;;;;;;-1.44;83.42;99711.23;103227;1258;138462;-69
2024/01/06 10:06:10;;;;;;;18.80;12.40;;;;;;;-1.43;83.35;99709.20;103342;1253;97121;-68
2024/01/06 10:08:40;;;;;;;17.40;11.60;;;;;;;-1.43;83.17;99717.90;102987;1257;1004914;-66
2024/01/06 10:11:07;;;;;;;15.60;10.50;;;;;;;-1.43;83.41;99713.13;103292;1253;96473;-67
2024/01/06 10:13:35;;;;;;;16.30;10.40;;;;;;;-1.41;83.05;99715.18;103267;1253;109775;-70
2024/01/06 10:16:02;;;;;;;14.20;10.40;;;;;;;-1.42;82.92;99713.30;103190;1254;138337;-70
2024/01/06 10:18:29;;;;;;;15.40;10.10;;;;;;;-1.40;83.06;99720.81;103399;1253;96790;-69
2024/01/06 10:20:57;;;;;;;15.70;11.30;;;;;;;-1.36;83.36;99726.13;103352;1253;137473;-70
2024/01/06 10:23:27;;;;;;;14.80;11.10;;;;;;;-1.31;83.43;99726.50;103771;1253;96463;-71
2024/01/06 10:25:55;;;;;;;17.40;11.30;;;;;;;-1.28;83.23;99728.39;103486;1253;109863;-70
2024/01/06 10:28:25;;;;;;;15.50;11.40;;;;;;;-1.27;83.22;99724.81;102832;1253;1003519;-71
2024/01/06 10:30:54;;;;;;;17.00;11.20;;;;;;;-1.29;83.21;99725.83;103478;1258;96988;-70
2024/01/06 10:33:21;;;;;;;14.10;9.70;;;;;;;-1.33;83.16;99722.57;103552;1253;138799;-71
2024/01/06 10:35:49;;;;;;;15.30;9.60;;;;;;;-1.33;83.24;99724.95;102882;1256;1003089;-70
2024/01/06 10:38:16;;;;;;;14.40;9.70;;;;;;;-1.33;83.43;99723.08;103378;1253;109790;-71
2024/01/06 10:40:58;;;;;;;15.60;10.50;;;;;;;-1.32;83.19;99729.56;103978;1253;107653;-69
2024/01/06 10:43:28;;;;;;;14.80;10.40;;;;;;;-1.32;83.27;99727.16;104510;1256;96511;-70
2024/01/06 10:45:57;;;;;;;14.30;10.80;;;;;;;-1.35;83.25;99726.48;103004;1256;138590;-69
2024/01/06 10:48:27;;;;;;;15.10;10.70;;;;;;;-1.38;83.16;99733.28;103452;1256;96475;-70
2024/01/06 10:50:55;;;;;;;14.40;10.60;;;;;;;-1.41;83.15;99732.05;103353;1255;1002863;-70
2024/01/06 10:53:23;;;;;;;16.10;11.50;;;;;;;-1.41;83.23;99732.23;103044;1258;107983;-69
2024/01/06 10:55:54;;;;;;;15.10;10.90;;;;;;;-1.46;83.20;99728.60;103243;1255;96440;-69
2024/01/06 10:58:23;;;;;;;15.70;11.50;;;;;;;-1.46;83.63;99727.75;103314;1253;314477;-70
2024/01/06 11:00:50;;;;;;;16.00;11.30;;;;;;;-1.43;83.87;99722.15;103320;1256;96446;-70
2024/01/06 11:03:18;;;;;;;17.20;11.80;;;;;;;-1.38;83.76;99718.95;102926;1256;138527;-70
2024/01/06 11:05:46;;;;;;;16.40;11.40;;;;;;;-1.36;83.77;99716.58;103199;1260;107021;-69
2024/01/06 11:08:14;;;;;;;19.50;12.90;;;;;;;-1.34;83.77;99708.41;103240;1258;96355;-70